createdAt,value
2019-02-09T00:01:48.587Z,55.42
2019-02-09T00:04:20.461Z,55.35
2019-02-09T00:06:50.580Z,55.48
2019-02-09T00:09:23.573Z,55.58
2019-02-09T00:11:56.403Z,55.47
2019-02-09T00:14:26.992Z,55.21
2019-02-09T00:16:57.001Z,55.34
2019-02-09T00:19:28.183Z,55.61
2019-02-09T00:21:58.543Z,55.44
2019-02-09T00:24:28.668Z,55.68
2019-02-09T00:26:58.729Z,55.81
2019-02-09T00:29:28.984Z,55.72
2019-02-09T00:31:59.008Z,55.99
2019-02-09T00:34:29.563Z,56.04
2019-02-09T00:37:00.176Z,55.92
2019-02-09T00:39:30.178Z,56.17
2019-02-09T00:42:00.351Z,56.26
2019-02-09T00:44:31.668Z,56.14
2019-02-09T00:47:03.717Z,56.29
2019-02-09T00:49:34.425Z,56.26
2019-02-09T00:52:05.528Z,56.42
2019-02-09T00:54:36.765Z,56.76
2019-02-09T00:57:07.039Z,56.22
2019-02-09T00:59:37.036Z,56.25
2019-02-09T01:02:08.162Z,56.08
2019-02-09T01:04:40.700Z,56.05
2019-02-09T01:07:13.271Z,56.05
2019-02-09T01:09:43.384Z,56.04
2019-02-09T01:12:14.961Z,56.09
2019-02-09T01:14:45.138Z,55.93
2019-02-09T01:17:18.381Z,55.65
2019-02-09T01:19:48.535Z,55.83
2019-02-09T01:22:18.995Z,56.00
2019-02-09T01:24:48.914Z,55.63
2019-02-09T01:27:19.011Z,55.30
2019-02-09T01:29:49.482Z,55.26
2019-02-09T01:32:20.930Z,55.26
2019-02-09T01:34:51.099Z,54.98
2019-02-09T01:37:21.952Z,54.69
2019-02-09T01:39:52.371Z,54.56
2019-02-09T01:42:23.894Z,54.53
2019-02-09T01:44:54.778Z,54.37
2019-02-09T01:47:24.669Z,54.24
2019-02-09T01:49:55.033Z,53.88
2019-02-09T01:52:25.179Z,53.81
2019-02-09T01:54:55.462Z,53.75
2019-02-09T01:57:33.475Z,53.64
2019-02-09T02:00:10.370Z,53.58
2019-02-09T02:02:36.637Z,53.61
2019-02-09T02:05:07.599Z,53.55
2019-02-09T02:07:38.708Z,53.72
2019-02-09T02:10:14.057Z,53.84
2019-02-09T02:12:44.100Z,53.83
2019-02-09T02:15:17.095Z,53.80
2019-02-09T02:17:47.356Z,53.79
2019-02-09T02:20:23.558Z,53.99
2019-02-09T02:22:54.280Z,53.90
2019-02-09T02:25:26.402Z,54.28
2019-02-09T02:27:58.242Z,54.59
2019-02-09T02:30:34.592Z,54.62
2019-02-09T02:33:04.968Z,54.35
2019-02-09T02:35:36.330Z,54.64
2019-02-09T02:38:07.062Z,53.83
2019-02-09T02:40:38.298Z,53.83
2019-02-09T02:43:08.410Z,53.93
2019-02-09T02:45:38.782Z,53.91
2019-02-09T02:48:08.850Z,53.86
2019-02-09T02:50:40.625Z,54.12
2019-02-09T02:53:11.290Z,54.24
2019-02-09T02:55:41.786Z,54.24
2019-02-09T02:58:12.548Z,53.94
2019-02-09T03:00:43.033Z,53.83
2019-02-09T03:03:13.192Z,53.89
2019-02-09T03:05:43.457Z,53.66
2019-02-09T03:08:13.424Z,53.51
2019-02-09T03:10:43.366Z,53.72
2019-02-09T03:13:13.560Z,53.68
2019-02-09T03:15:43.562Z,53.52
2019-02-09T03:18:13.680Z,53.45
2019-02-09T03:20:43.838Z,53.24
2019-02-09T03:23:13.920Z,52.98
2019-02-09T03:25:43.786Z,53.42
2019-02-09T03:28:14.102Z,53.84
2019-02-09T03:30:47.463Z,53.46
2019-02-09T03:33:16.988Z,53.38
2019-02-09T03:35:47.264Z,53.79
2019-02-09T03:38:17.152Z,54.17
2019-02-09T03:40:47.172Z,54.94
2019-02-09T03:43:17.328Z,55.22
2019-02-09T03:45:47.325Z,55.70
2019-02-09T03:48:17.449Z,56.57
2019-02-09T03:50:47.697Z,57.63
2019-02-09T03:53:17.833Z,57.82
2019-02-09T03:55:47.977Z,58.13
2019-02-09T03:58:21.146Z,58.74
2019-02-09T04:00:55.376Z,59.12
2019-02-09T04:03:27.419Z,60.21
2019-02-09T04:05:59.436Z,60.57
2019-02-09T04:08:29.555Z,61.06
2019-02-09T04:10:59.794Z,61.51
2019-02-09T04:13:29.761Z,62.15
2019-02-09T04:15:59.877Z,62.45
2019-02-09T04:18:30.124Z,62.91
2019-02-09T04:21:03.053Z,63.71
2019-02-09T04:23:37.043Z,64.27
2019-02-09T04:26:06.910Z,63.92
2019-02-09T04:28:36.830Z,63.92
2019-02-09T04:31:07.196Z,63.67
2019-02-09T04:33:37.126Z,63.67
2019-02-09T04:36:07.002Z,63.85
2019-02-09T04:38:38.656Z,64.35
2019-02-09T04:41:11.817Z,64.35
2019-02-09T04:43:41.682Z,64.56
2019-02-09T04:46:11.665Z,64.56
2019-02-09T04:48:41.665Z,64.69
2019-02-09T04:51:14.960Z,64.51
2019-02-09T04:53:45.034Z,65.23
2019-02-09T04:56:15.316Z,64.81
2019-02-09T04:58:45.666Z,64.94
2019-02-09T05:01:17.065Z,64.94
2019-02-09T05:03:46.908Z,65.03
2019-02-09T05:06:18.067Z,65.46
2019-02-09T05:08:47.966Z,65.57
2019-02-09T05:11:25.231Z,65.57
2019-02-09T05:13:56.209Z,65.47
2019-02-09T05:16:30.564Z,65.79
2019-02-09T05:19:00.668Z,65.18
2019-02-09T05:21:32.108Z,65.18
2019-02-09T05:24:02.047Z,65.59
2019-02-09T05:26:32.119Z,66.01
2019-02-09T05:29:01.991Z,66.00
2019-02-09T05:31:32.416Z,66.00
2019-02-09T05:34:03.598Z,65.75
2019-02-09T05:36:33.884Z,65.92
2019-02-09T05:39:08.288Z,65.48
2019-02-09T05:41:39.654Z,65.18
2019-02-09T05:44:09.655Z,64.81
2019-02-09T05:46:40.395Z,65.19
2019-02-09T05:49:11.891Z,65.19
2019-02-09T05:51:41.899Z,65.42
2019-02-09T05:54:13.191Z,65.90
2019-02-09T05:56:43.067Z,67.05
2019-02-09T05:59:14.259Z,67.05
2019-02-09T06:01:44.421Z,67.49
2019-02-09T06:04:15.585Z,68.03
2019-02-09T06:06:46.347Z,68.58
2019-02-09T06:09:16.484Z,68.69
2019-02-09T06:11:46.811Z,69.21
2019-02-09T06:14:17.198Z,70.16
2019-02-09T06:16:47.502Z,70.16
2019-02-09T06:19:20.320Z,70.58
2019-02-09T06:21:50.705Z,70.94
2019-02-09T06:24:21.094Z,71.27
2019-02-09T06:26:50.893Z,71.24
2019-02-09T06:29:21.002Z,71.55
2019-02-09T06:31:52.025Z,71.50
2019-02-09T06:34:23.445Z,71.94
2019-02-09T06:36:54.125Z,71.73
2019-02-09T06:39:24.046Z,71.65
2019-02-09T06:41:53.997Z,71.65
2019-02-09T06:44:24.827Z,71.07
2019-02-09T06:46:54.717Z,71.07
2019-02-09T06:49:24.583Z,71.00
2019-02-09T06:51:54.756Z,70.55
2019-02-09T06:54:24.978Z,70.55
2019-02-09T06:56:58.004Z,70.39
2019-02-09T06:59:28.010Z,69.80
2019-02-09T07:01:58.027Z,69.80
2019-02-09T07:04:27.911Z,69.97
2019-02-09T07:07:02.228Z,69.64
2019-02-09T07:09:32.190Z,70.42
2019-02-09T07:12:04.785Z,70.16
2019-02-09T07:14:35.116Z,70.23
2019-02-09T07:17:07.766Z,70.23
2019-02-09T07:19:38.421Z,69.88
2019-02-09T07:22:09.995Z,69.83
2019-02-09T07:24:43.000Z,69.83
2019-02-09T07:27:13.264Z,69.27
2019-02-09T07:29:46.897Z,69.96
2019-02-09T07:32:16.735Z,69.62
2019-02-09T07:34:47.425Z,69.53
2019-02-09T07:37:18.798Z,69.42
2019-02-09T07:39:48.801Z,69.28
2019-02-09T07:42:22.193Z,69.34
2019-02-09T07:44:57.215Z,69.45
2019-02-09T07:47:27.230Z,69.45
2019-02-09T07:50:08.615Z,69.44
2019-02-09T07:52:39.886Z,68.38
2019-02-09T07:55:12.684Z,68.38
2019-02-09T07:57:43.066Z,68.30
2019-02-09T08:00:20.068Z,68.22
2019-02-09T08:02:50.389Z,67.97
2019-02-09T08:05:26.116Z,67.73
2019-02-09T08:07:56.162Z,67.32
2019-02-09T08:10:28.028Z,67.35
2019-02-09T08:12:58.397Z,67.07
2019-02-09T08:15:31.142Z,66.67
2019-02-09T08:18:01.273Z,66.53
2019-02-09T08:20:34.610Z,66.47
2019-02-09T08:23:05.060Z,66.51
2019-02-09T08:25:36.409Z,66.34
2019-02-09T08:28:08.171Z,66.58
2019-02-09T08:30:43.897Z,66.67
2019-02-09T08:33:19.146Z,66.57
2019-02-09T08:35:49.462Z,66.44
2019-02-09T08:38:22.441Z,66.03
2019-02-09T08:40:52.392Z,65.82
2019-02-09T08:43:25.749Z,65.21
2019-02-09T08:45:56.880Z,64.86
2019-02-09T08:48:27.045Z,64.38
2019-02-09T08:51:04.707Z,64.03
2019-02-09T08:53:34.764Z,63.51
2019-02-09T08:56:07.916Z,63.25
2019-02-09T08:58:38.055Z,62.68
2019-02-09T09:01:08.142Z,62.42
2019-02-09T09:03:38.966Z,62.25
2019-02-09T09:06:09.158Z,62.42
2019-02-09T09:08:39.205Z,62.71
2019-02-09T09:11:09.968Z,63.01
2019-02-09T09:13:40.460Z,62.71
2019-02-09T09:16:14.691Z,62.88
2019-02-09T09:18:47.337Z,62.88
2019-02-09T09:21:18.452Z,62.85
2019-02-09T09:23:49.759Z,62.47
2019-02-09T09:26:20.691Z,62.28
2019-02-09T09:28:56.887Z,62.35
2019-02-09T09:31:30.902Z,61.74
2019-02-09T09:34:05.475Z,61.69
2019-02-09T09:36:36.209Z,61.50
2019-02-09T09:39:09.731Z,62.00
2019-02-09T09:41:40.038Z,62.04
2019-02-09T09:44:13.694Z,61.59
2019-02-09T09:46:43.802Z,61.46
2019-02-09T09:49:14.942Z,61.36
2019-02-09T09:51:45.333Z,61.10
2019-02-09T09:54:16.910Z,61.26
2019-02-09T09:56:47.196Z,61.11
2019-02-09T09:59:17.574Z,60.95
2019-02-09T10:01:50.449Z,61.04
2019-02-09T10:04:21.091Z,60.89
2019-02-09T10:06:51.212Z,61.20
2019-02-09T10:09:23.616Z,61.18
2019-02-09T10:11:55.816Z,60.88
2019-02-09T10:14:29.430Z,61.09
2019-02-09T10:17:00.674Z,61.19
2019-02-09T10:19:31.317Z,61.54
2019-02-09T10:22:01.978Z,61.24
2019-02-09T10:24:37.281Z,60.96
2019-02-09T10:27:08.805Z,61.29
2019-02-09T10:29:42.401Z,60.83
2019-02-09T10:32:13.355Z,60.07
2019-02-09T10:34:46.234Z,59.69
2019-02-09T10:37:17.923Z,58.92
2019-02-09T10:39:48.399Z,58.75
2019-02-09T10:42:20.106Z,58.29
2019-02-09T10:44:50.648Z,57.48
2019-02-09T10:47:21.437Z,57.85
2019-02-09T10:49:51.871Z,57.19
2019-02-09T10:52:22.188Z,57.35
2019-02-09T10:54:53.280Z,57.12
2019-02-09T10:57:26.018Z,56.78
2019-02-09T10:59:56.910Z,56.54
2019-02-09T11:02:28.111Z,55.13
2019-02-09T11:04:59.948Z,54.33
2019-02-09T11:07:32.385Z,54.33
2019-02-09T11:10:04.022Z,54.76
2019-02-09T11:12:34.391Z,54.49
2019-02-09T11:15:10.700Z,54.18
2019-02-09T11:17:40.984Z,53.23
2019-02-09T11:20:14.913Z,52.02
2019-02-09T11:22:50.877Z,52.33
2019-02-09T11:25:21.630Z,52.22
2019-02-09T11:27:53.067Z,51.35
2019-02-09T11:30:24.922Z,51.59
2019-02-09T11:33:02.065Z,51.31
2019-02-09T11:35:28.411Z,50.63
2019-02-09T11:37:58.535Z,50.85
2019-02-09T11:40:28.762Z,51.52
2019-02-09T11:42:59.119Z,50.49
2019-02-09T11:45:31.599Z,50.04
2019-02-09T11:48:02.250Z,50.51
2019-02-09T11:50:32.676Z,50.08
2019-02-09T11:53:03.603Z,50.01
2019-02-09T11:55:35.217Z,50.11
2019-02-09T11:58:05.316Z,50.07
2019-02-09T12:00:39.642Z,50.78
2019-02-09T12:03:14.990Z,50.81
2019-02-09T12:05:43.102Z,51.44
2019-02-09T12:08:15.211Z,51.04
2019-02-09T12:10:48.715Z,51.36
2019-02-09T12:13:23.767Z,51.41
2019-02-09T12:15:56.798Z,50.99
2019-02-09T12:18:27.622Z,50.84
2019-02-09T12:20:57.667Z,50.82
2019-02-09T12:23:28.158Z,51.10
2019-02-09T12:25:59.804Z,51.06
2019-02-09T12:28:29.911Z,50.79
2019-02-09T12:31:00.187Z,49.85
2019-02-09T12:33:33.330Z,50.38
2019-02-09T12:36:08.043Z,49.64
2019-02-09T12:38:38.343Z,49.57
2019-02-09T12:41:09.547Z,49.29
2019-02-09T12:43:39.636Z,49.22
2019-02-09T12:46:14.569Z,48.77
2019-02-09T12:48:45.377Z,47.95
2019-02-09T12:51:15.300Z,48.68
2019-02-09T12:53:45.435Z,48.72
2019-02-09T12:56:16.904Z,48.31
2019-02-09T12:58:47.039Z,48.26
2019-02-09T13:01:18.953Z,48.39
2019-02-09T13:03:49.457Z,49.12
2019-02-09T13:06:20.101Z,49.87
2019-02-09T13:11:40.690Z,48.93
2019-02-09T13:14:21.676Z,49.61
2019-02-09T13:17:03.531Z,49.73
2019-02-09T13:19:34.311Z,49.38
2019-02-09T13:25:18.701Z,49.50
2019-02-09T13:28:29.002Z,49.60
2019-02-09T13:31:19.959Z,49.59
2019-02-09T13:36:54.213Z,49.39
2019-02-09T13:39:26.139Z,49.61
2019-02-09T13:42:00.279Z,49.53
2019-02-09T13:44:33.397Z,49.35
2019-02-09T13:47:03.528Z,49.48
2019-02-09T13:50:05.721Z,49.74
2019-02-09T13:52:47.213Z,49.45
2019-02-09T13:55:56.256Z,49.30
2019-02-09T13:58:45.213Z,48.63
2019-02-09T14:01:45.935Z,48.34
2019-02-09T14:04:26.791Z,48.01
2019-02-09T14:07:15.931Z,47.68
2019-02-09T14:10:15.714Z,46.88
2019-02-09T14:13:16.604Z,46.42
2019-02-09T14:15:58.599Z,46.83
2019-02-09T14:18:28.962Z,47.17
2019-02-09T14:21:18.107Z,47.41
2019-02-09T14:24:07.536Z,47.45
2019-02-09T14:30:24.548Z,48.20
2019-02-09T14:33:13.516Z,49.33
2019-02-09T14:36:22.680Z,49.05
2019-02-09T14:39:04.617Z,49.37
2019-02-09T14:44:45.494Z,49.24
2019-02-09T14:47:26.272Z,49.25
2019-02-09T14:50:11.261Z,49.16
2019-02-09T14:53:18.824Z,49.04
2019-02-09T14:58:50.414Z,49.42
2019-02-09T15:01:21.148Z,49.73
2019-02-09T15:03:51.512Z,49.75
2019-02-09T15:06:40.434Z,50.81
2019-02-09T15:09:49.882Z,50.40
2019-02-09T15:12:31.049Z,50.56
2019-02-09T15:15:12.521Z,50.51
2019-02-09T15:18:21.593Z,50.16
2019-02-09T15:24:05.712Z,49.80
2019-02-09T15:26:37.390Z,49.30
2019-02-09T15:29:08.920Z,49.86
2019-02-09T15:31:38.750Z,49.90
2019-02-09T15:37:53.076Z,50.15
2019-02-09T15:40:23.923Z,51.00
2019-02-09T15:42:54.172Z,51.44
2019-02-09T15:45:36.021Z,51.56
2019-02-09T15:48:17.902Z,51.66
2019-02-09T15:50:59.593Z,51.86
2019-02-09T15:53:30.172Z,51.82
2019-02-09T15:56:39.308Z,52.42
2019-02-09T16:02:22.288Z,53.03
2019-02-09T16:05:03.853Z,53.21
2019-02-09T16:07:45.412Z,52.85
2019-02-09T16:10:45.862Z,53.04
2019-02-09T16:13:27.017Z,53.22
2019-02-09T16:16:36.072Z,53.45
2019-02-09T16:19:44.447Z,54.22
2019-02-09T16:25:47.403Z,55.54
2019-02-09T16:31:30.527Z,55.36
2019-02-09T16:34:39.521Z,55.78
2019-02-09T16:37:28.741Z,56.02
2019-02-09T16:40:37.866Z,55.97
2019-02-09T16:43:27.153Z,56.36
2019-02-09T16:45:57.579Z,57.13
2019-02-09T16:48:27.663Z,56.99
2019-02-09T16:51:16.900Z,57.53
2019-02-09T16:54:25.890Z,57.59
2019-02-09T17:00:08.089Z,58.34
2019-02-09T17:02:49.561Z,58.25
2019-02-09T17:05:19.992Z,58.20
2019-02-09T17:07:50.329Z,58.51
2019-02-09T17:10:59.378Z,58.55
2019-02-09T17:13:42.260Z,58.42
2019-02-09T17:16:15.968Z,58.44
2019-02-09T17:19:05.748Z,58.40
2019-02-09T17:21:39.236Z,58.69
2019-02-09T17:24:10.592Z,58.74
2019-02-09T17:27:02.656Z,58.69
2019-02-09T17:29:34.256Z,59.05
2019-02-09T17:32:04.866Z,59.06
2019-02-09T17:34:40.819Z,59.22
2019-02-09T17:37:07.536Z,59.45
2019-02-09T17:39:37.449Z,59.40
2019-02-09T17:42:08.956Z,58.92
2019-02-09T17:44:39.320Z,59.26
2019-02-09T17:47:10.724Z,59.00
2019-02-09T17:49:41.247Z,59.12
2019-02-09T17:52:11.526Z,59.25
2019-02-09T17:54:41.836Z,59.27
2019-02-09T17:57:16.538Z,58.96
2019-02-09T17:59:47.221Z,59.09
2019-02-09T18:02:17.872Z,59.48
2019-02-09T18:04:51.534Z,59.25
2019-02-09T18:07:21.875Z,59.29
2019-02-09T18:09:51.720Z,59.28
2019-02-09T18:12:21.800Z,59.39
2019-02-09T18:14:52.410Z,59.32
2019-02-09T18:17:22.245Z,59.25
2019-02-09T18:19:53.722Z,59.23
2019-02-09T18:22:23.812Z,59.57
2019-02-09T18:24:54.344Z,59.58
2019-02-09T18:27:24.922Z,59.99
2019-02-09T18:30:26.294Z,59.51
2019-02-09T18:33:18.777Z,59.58
2019-02-09T18:36:00.312Z,59.66
2019-02-09T18:38:31.401Z,59.54
2019-02-09T18:41:42.432Z,59.33
2019-02-09T18:47:08.141Z,60.34
2019-02-09T18:49:38.409Z,59.63
2019-02-09T18:54:59.121Z,59.28
2019-02-09T18:57:29.825Z,59.50
2019-02-09T19:00:22.145Z,59.48
2019-02-09T19:06:20.719Z,59.80
2019-02-09T19:11:54.670Z,59.82
2019-02-09T19:20:33.093Z,60.18
2019-02-09T19:23:06.694Z,59.91
2019-02-09T19:25:38.338Z,60.13
2019-02-09T19:28:08.960Z,60.27
2019-02-09T19:30:40.530Z,60.79
2019-02-09T19:33:11.388Z,60.81
2019-02-09T19:35:43.426Z,61.05
2019-02-09T19:38:13.706Z,61.11
2019-02-09T19:40:47.888Z,60.97
2019-02-09T19:43:40.623Z,61.12
2019-02-09T19:46:43.575Z,61.68
2019-02-09T19:52:18.534Z,61.55
2019-02-09T19:55:22.860Z,61.77
2019-02-09T19:58:04.876Z,61.47
2019-02-09T20:00:38.688Z,61.66
2019-02-09T20:03:09.433Z,62.12
2019-02-09T20:05:59.024Z,61.93
2019-02-09T20:08:30.145Z,61.94
2019-02-09T20:11:00.985Z,61.93
2019-02-09T20:13:33.443Z,61.98
2019-02-09T20:16:12.418Z,61.96
2019-02-09T20:18:48.240Z,61.71
2019-02-09T20:21:20.460Z,61.62
2019-02-09T20:23:51.755Z,61.93
2019-02-09T20:26:29.838Z,61.92
2019-02-09T20:29:09.505Z,61.73
2019-02-09T20:31:41.666Z,62.03
2019-02-09T20:34:18.742Z,62.06
2019-02-09T20:36:52.433Z,62.22
2019-02-09T20:39:24.223Z,62.22
2019-02-09T20:41:54.351Z,62.32
2019-02-09T20:44:25.065Z,62.46
2019-02-09T20:46:57.018Z,62.50
2019-02-09T20:49:29.274Z,62.10
2019-02-09T20:52:00.578Z,61.68
2019-02-09T20:54:30.561Z,61.19
2019-02-09T20:57:09.463Z,60.97
2019-02-09T20:59:40.600Z,60.56
2019-02-09T21:02:12.152Z,60.30
2019-02-09T21:04:42.573Z,60.28
2019-02-09T21:07:13.599Z,59.80
2019-02-09T21:09:44.005Z,59.72
2019-02-09T21:12:16.970Z,59.63
2019-02-09T21:15:25.884Z,59.72
2019-02-09T21:18:08.519Z,59.63
2019-02-09T21:21:17.543Z,61.79
2019-02-09T21:23:59.031Z,62.65
2019-02-09T21:26:59.467Z,63.25
2019-02-09T21:29:40.321Z,63.38
2019-02-09T21:32:21.310Z,62.49
2019-02-09T21:35:02.351Z,62.39
2019-02-09T21:37:52.953Z,62.05
2019-02-09T21:40:24.672Z,61.70
2019-02-09T21:42:55.284Z,61.53
2019-02-09T21:45:25.671Z,61.42
2019-02-09T21:47:56.074Z,61.03
2019-02-09T21:50:38.088Z,60.84
2019-02-09T21:53:08.898Z,60.76
2019-02-09T21:55:40.547Z,61.43
2019-02-09T21:58:10.841Z,61.50
2019-02-09T22:00:43.343Z,61.29
2019-02-09T22:03:14.579Z,61.37
2019-02-09T22:06:24.681Z,61.05
2019-02-09T22:08:56.768Z,61.03
2019-02-09T22:11:29.833Z,61.52
2019-02-09T22:14:00.827Z,61.56
2019-02-09T22:20:05.468Z,61.83
2019-02-09T22:22:35.896Z,61.82
2019-02-09T22:25:26.847Z,61.68
2019-02-09T22:28:08.376Z,61.74
2019-02-09T22:31:21.838Z,61.94
2019-02-09T22:37:19.530Z,62.11
2019-02-09T22:42:48.237Z,62.24
2019-02-09T22:45:19.965Z,62.39
2019-02-09T22:54:00.146Z,62.01
2019-02-09T22:56:32.738Z,61.56
2019-02-09T22:59:03.506Z,61.35
2019-02-09T23:01:53.370Z,61.29
2019-02-09T23:04:50.354Z,61.04
2019-02-09T23:07:25.241Z,60.81
2019-02-09T23:10:34.341Z,60.55
2019-02-09T23:13:24.595Z,60.73
2019-02-09T23:15:54.638Z,60.63
2019-02-09T23:18:24.655Z,60.39
2019-02-09T23:20:56.012Z,60.24
2019-02-09T23:23:25.946Z,60.33
2019-02-09T23:25:56.678Z,60.38
2019-02-09T23:28:26.827Z,60.53
2019-02-09T23:30:56.824Z,61.07
2019-02-09T23:33:27.471Z,61.10
2019-02-09T23:35:57.535Z,61.61
2019-02-09T23:38:27.900Z,61.71
2019-02-09T23:40:57.750Z,61.64
2019-02-09T23:43:27.651Z,61.72
2019-02-09T23:45:58.987Z,61.86
2019-02-09T23:48:29.447Z,61.88
2019-02-09T23:50:59.423Z,61.89
2019-02-09T23:53:29.621Z,61.99
2019-02-09T23:56:18.867Z,62.48
2019-02-09T23:58:49.352Z,62.79
